createdAt,value
2023-02-22T00:02:13.097Z,97095.19
2023-02-22T00:04:42.342Z,97094.06
2023-02-22T00:07:10.451Z,97084.13
2023-02-22T00:09:38.417Z,97096.13
2023-02-22T00:12:08.650Z,97091.78
2023-02-22T00:14:36.809Z,97089.34
2023-02-22T00:17:06.393Z,97092.22
2023-02-22T00:19:34.374Z,97079.88
2023-02-22T00:22:02.550Z,97091.19
2023-02-22T00:24:31.439Z,97093.53
2023-02-22T00:27:00.060Z,97088.72
2023-02-22T00:29:28.729Z,97076.53
2023-02-22T00:31:57.088Z,97079.91
2023-02-22T00:34:26.664Z,97070.50
2023-02-22T00:36:54.596Z,97070.50
2023-02-22T00:39:23.184Z,97067.88
2023-02-22T00:41:51.354Z,97071.34
2023-02-22T00:44:19.336Z,97069.75
2023-02-22T00:46:47.502Z,97080.19
2023-02-22T00:49:16.174Z,97066.66
2023-02-22T00:51:45.892Z,97068.94
2023-02-22T00:54:14.811Z,97070.78
2023-02-22T00:56:43.065Z,97069.63
2023-02-22T00:59:11.125Z,97064.91
2023-02-22T01:01:39.161Z,97067.25
2023-02-22T01:04:07.212Z,97076.81
2023-02-22T01:06:35.495Z,97077.13
2023-02-22T01:09:07.821Z,97078.97
2023-02-22T01:11:35.821Z,97078.06
2023-02-22T01:14:04.023Z,97087.94
2023-02-22T01:16:31.996Z,97076.38
2023-02-22T01:19:01.574Z,97083.59
2023-02-22T01:21:30.215Z,97083.78
2023-02-22T01:23:58.133Z,97081.16
2023-02-22T01:26:28.645Z,97076.44
2023-02-22T01:28:56.549Z,97078.13
2023-02-22T01:31:27.400Z,97081.88
2023-02-22T01:33:55.660Z,97076.75
2023-02-22T01:36:23.507Z,97078.44
2023-02-22T01:38:51.556Z,97077.63
2023-02-22T01:41:19.772Z,97078.97
2023-02-22T01:43:49.309Z,97075.28
2023-02-22T01:46:25.383Z,97085.78
2023-02-22T01:48:58.624Z,97084.78
2023-02-22T01:51:29.457Z,97077.94
2023-02-22T01:54:03.140Z,97075.28
2023-02-22T01:56:33.742Z,97074.59
2023-02-22T01:59:07.306Z,97082.69
2023-02-22T02:01:37.261Z,97081.63
2023-02-22T02:04:11.008Z,97083.88
2023-02-22T02:06:39.887Z,97079.09
2023-02-22T02:09:13.120Z,97077.38
2023-02-22T02:11:42.706Z,97073.81
2023-02-22T02:14:13.381Z,97074.09
2023-02-22T02:16:49.782Z,97065.78
2023-02-22T02:19:29.728Z,97066.22
2023-02-22T02:22:22.201Z,97068.09
2023-02-22T02:25:30.951Z,97062.47
2023-02-22T02:28:36.108Z,97057.25
2023-02-22T02:31:24.088Z,97065.38
2023-02-22T02:33:59.463Z,97066.38
2023-02-22T02:36:32.691Z,97058.88
2023-02-22T02:39:08.882Z,97059.16
2023-02-22T02:41:40.823Z,97062.94
2023-02-22T02:44:14.841Z,97058.25
2023-02-22T02:46:50.485Z,97061.94
2023-02-22T02:49:23.464Z,97064.38
2023-02-22T02:51:54.677Z,97051.50
2023-02-22T02:54:23.655Z,97057.47
2023-02-22T02:56:53.667Z,97048.00
2023-02-22T02:59:26.738Z,97049.97
2023-02-22T03:02:08.042Z,97056.72
2023-02-22T03:04:50.067Z,97045.13
2023-02-22T03:07:33.472Z,97050.13
2023-02-22T03:10:16.129Z,97049.41
2023-02-22T03:12:50.021Z,97052.22
2023-02-22T03:15:35.074Z,97053.38
2023-02-22T03:18:07.746Z,97059.34
2023-02-22T03:20:45.729Z,97059.84
2023-02-22T03:23:25.503Z,97056.16
2023-02-22T03:25:59.505Z,97049.44
2023-02-22T03:28:29.589Z,97049.97
2023-02-22T03:31:02.121Z,97047.16
2023-02-22T03:33:36.351Z,97040.25
2023-02-22T03:36:11.573Z,97043.31
2023-02-22T03:38:42.520Z,97044.97
2023-02-22T03:41:17.454Z,97045.84
2023-02-22T03:43:50.627Z,97043.28
2023-02-22T03:46:20.383Z,97049.09
2023-02-22T03:48:54.280Z,97042.56
2023-02-22T03:51:25.817Z,97051.84
2023-02-22T03:53:59.404Z,97049.50
2023-02-22T03:56:36.639Z,97046.19
2023-02-22T03:59:06.325Z,97042.38
2023-02-22T04:01:34.991Z,97041.59
2023-02-22T04:04:03.682Z,97047.19
2023-02-22T04:06:33.885Z,97041.31
2023-02-22T04:09:03.454Z,97045.84
2023-02-22T04:11:31.683Z,97045.84
2023-02-22T04:14:01.274Z,97042.19
2023-02-22T04:16:29.577Z,97043.25
2023-02-22T04:18:57.602Z,97034.22
2023-02-22T04:21:25.534Z,97036.28
2023-02-22T04:23:54.968Z,97036.91
2023-02-22T04:26:23.295Z,97034.13
2023-02-22T04:28:55.851Z,97040.88
2023-02-22T04:31:25.888Z,97026.22
2023-02-22T04:33:55.972Z,97032.09
2023-02-22T04:36:28.893Z,97036.41
2023-02-22T04:38:58.851Z,97034.75
2023-02-22T04:41:28.606Z,97033.28
2023-02-22T04:43:57.471Z,97030.03
2023-02-22T04:46:27.263Z,97028.13
2023-02-22T04:48:55.869Z,97026.44
2023-02-22T04:51:26.975Z,97036.72
2023-02-22T04:54:01.410Z,97026.78
2023-02-22T04:56:30.821Z,97031.16
2023-02-22T04:58:58.821Z,97027.47
2023-02-22T05:01:26.891Z,97025.13
2023-02-22T05:03:54.890Z,97030.63
2023-02-22T05:06:23.019Z,97034.22
2023-02-22T05:08:51.023Z,97022.34
2023-02-22T05:11:20.529Z,97032.38
2023-02-22T05:13:48.733Z,97021.44
2023-02-22T05:16:17.586Z,97024.34
2023-02-22T05:18:45.624Z,97026.34
2023-02-22T05:21:14.457Z,97026.34
2023-02-22T05:23:42.866Z,97031.50
2023-02-22T05:26:11.844Z,97031.84
2023-02-22T05:28:41.351Z,97031.66
2023-02-22T05:31:09.971Z,97030.94
2023-02-22T05:33:39.708Z,97027.91
2023-02-22T05:36:09.075Z,97029.97
2023-02-22T05:38:43.387Z,97026.25
2023-02-22T05:41:12.709Z,97027.03
2023-02-22T05:43:42.523Z,97018.91
2023-02-22T05:46:10.814Z,97038.47
2023-02-22T05:48:38.838Z,97028.25
2023-02-22T05:51:07.552Z,97028.88
2023-02-22T05:53:35.569Z,97027.91
2023-02-22T05:56:04.317Z,97036.94
2023-02-22T05:58:32.617Z,97028.50
2023-02-22T06:01:03.327Z,97034.63
2023-02-22T06:03:31.747Z,97031.53
2023-02-22T06:05:59.795Z,97034.31
2023-02-22T06:08:28.019Z,97035.91
2023-02-22T06:10:55.936Z,97036.69
2023-02-22T06:13:23.973Z,97043.44
2023-02-22T06:15:52.253Z,97046.56
2023-02-22T06:18:21.851Z,97045.66
2023-02-22T06:20:50.882Z,97046.13
2023-02-22T06:23:19.110Z,97048.81
2023-02-22T06:25:47.091Z,97044.50
2023-02-22T06:28:15.755Z,97046.38
2023-02-22T06:30:43.807Z,97045.91
2023-02-22T06:33:12.778Z,97046.53
2023-02-22T06:35:42.349Z,97048.13
2023-02-22T06:38:10.463Z,97042.59
2023-02-22T06:40:38.461Z,97051.06
2023-02-22T06:43:06.850Z,97050.09
2023-02-22T06:45:35.065Z,97051.25
2023-02-22T06:48:03.525Z,97049.56
2023-02-22T06:50:36.089Z,97056.66
2023-02-22T06:53:06.063Z,97055.91
2023-02-22T06:55:35.801Z,97061.75
2023-02-22T06:58:05.231Z,97065.06
2023-02-22T07:00:34.345Z,97064.84
2023-02-22T07:03:04.855Z,97078.34
2023-02-22T07:05:33.129Z,97074.84
2023-02-22T07:08:07.633Z,97066.66
2023-02-22T07:10:37.765Z,97073.72
2023-02-22T07:13:08.678Z,97074.66
2023-02-22T07:15:37.278Z,97070.59
2023-02-22T07:18:05.908Z,97077.03
2023-02-22T07:20:34.719Z,97070.25
2023-02-22T07:23:03.043Z,97076.19
2023-02-22T07:25:32.488Z,97073.72
2023-02-22T07:28:01.292Z,97078.72
2023-02-22T07:30:31.620Z,97079.44
2023-02-22T07:33:01.321Z,97081.97
2023-02-22T07:35:32.007Z,97084.88
2023-02-22T07:38:00.862Z,97089.06
2023-02-22T07:40:30.128Z,97090.22
2023-02-22T07:43:01.958Z,97092.50
2023-02-22T07:45:32.996Z,97096.53
2023-02-22T07:48:02.845Z,97092.03
2023-02-22T07:50:33.288Z,97091.09
2023-02-22T07:53:03.690Z,97089.41
2023-02-22T07:55:33.291Z,97083.53
2023-02-22T07:58:06.912Z,97084.41
2023-02-22T08:00:36.994Z,97085.47
2023-02-22T08:03:07.910Z,97082.19
2023-02-22T08:06:03.020Z,97083.16
2023-02-22T08:08:31.238Z,97090.84
2023-02-22T08:10:59.230Z,97080.63
2023-02-22T08:13:28.719Z,97088.19
2023-02-22T08:15:56.932Z,97083.63
2023-02-22T08:18:26.292Z,97086.75
2023-02-22T08:20:55.179Z,97089.63
2023-02-22T08:23:27.014Z,97079.25
2023-02-22T08:25:55.501Z,97086.63
2023-02-22T08:28:25.493Z,97090.13
2023-02-22T08:30:55.257Z,97089.19
2023-02-22T08:33:23.658Z,97087.53
2023-02-22T08:35:52.094Z,97089.91
2023-02-22T08:38:23.881Z,97090.00
2023-02-22T08:40:52.340Z,97089.25
2023-02-22T08:43:21.923Z,97091.22
2023-02-22T08:45:53.582Z,97085.34
2023-02-22T08:48:24.423Z,97085.22
2023-02-22T08:50:52.616Z,97089.41
2023-02-22T08:53:20.932Z,97075.88
2023-02-22T08:55:50.193Z,97079.44
2023-02-22T08:58:18.281Z,97079.50
2023-02-22T09:00:46.456Z,97074.91
2023-02-22T09:03:16.050Z,97078.41
2023-02-22T09:05:46.244Z,97076.47
2023-02-22T09:08:16.462Z,97081.13
2023-02-22T09:10:45.373Z,97083.75
2023-02-22T09:13:14.162Z,97082.19
2023-02-22T09:15:42.575Z,97087.13
2023-02-22T09:18:14.739Z,97087.38
2023-02-22T09:20:43.225Z,97095.16
2023-02-22T09:23:14.393Z,97086.50
2023-02-22T09:25:42.816Z,97087.44
2023-02-22T09:28:11.043Z,97087.13
2023-02-22T09:30:39.496Z,97079.22
2023-02-22T09:33:11.190Z,97080.47
2023-02-22T09:35:42.568Z,97084.78
2023-02-22T09:38:13.400Z,97069.81
2023-02-22T09:40:45.980Z,97072.16
2023-02-22T09:43:24.792Z,97070.41
2023-02-22T09:46:07.342Z,97068.78
2023-02-22T09:48:40.745Z,97062.28
2023-02-22T09:51:15.919Z,97069.34
2023-02-22T09:53:49.747Z,97064.78
2023-02-22T09:56:21.283Z,97061.72
2023-02-22T09:58:53.802Z,97058.19
2023-02-22T10:01:28.247Z,97058.38
2023-02-22T10:04:03.197Z,97055.50
2023-02-22T10:06:33.651Z,97054.69
2023-02-22T10:09:08.361Z,97051.06
2023-02-22T10:11:48.794Z,97053.25
2023-02-22T10:14:50.001Z,97052.13
2023-02-22T10:17:29.738Z,97048.59
2023-02-22T10:20:08.354Z,97048.47
2023-02-22T10:22:51.323Z,97047.97
2023-02-22T10:25:23.803Z,97047.94
2023-02-22T10:27:59.242Z,97041.50
2023-02-22T10:30:33.976Z,97035.41
2023-02-22T10:33:10.278Z,97035.66
2023-02-22T10:35:41.197Z,97042.56
2023-02-22T10:38:16.653Z,97033.22
2023-02-22T10:40:51.329Z,97038.34
2023-02-22T10:43:20.070Z,97036.50
2023-02-22T10:45:48.657Z,97032.19
2023-02-22T10:48:19.599Z,97036.00
2023-02-22T10:50:48.905Z,97034.47
2023-02-22T10:53:17.823Z,97023.69
2023-02-22T10:56:21.407Z,97025.13
2023-02-22T10:58:53.366Z,97029.13
2023-02-22T11:01:36.182Z,97025.72
2023-02-22T11:04:13.356Z,97021.53
2023-02-22T11:06:44.423Z,97017.16
2023-02-22T11:09:15.662Z,97022.81
2023-02-22T11:11:47.660Z,97018.00
2023-02-22T11:14:27.385Z,97013.81
2023-02-22T11:16:58.014Z,97010.69
2023-02-22T11:19:28.161Z,97006.97
2023-02-22T11:22:00.641Z,97007.97
2023-02-22T11:24:43.616Z,97005.53
2023-02-22T11:27:27.272Z,97002.09
2023-02-22T11:30:00.304Z,96997.03
2023-02-22T11:32:28.888Z,96998.84
2023-02-22T11:35:31.253Z,96995.75
2023-02-22T11:38:12.962Z,97000.88
2023-02-22T11:40:41.323Z,96998.53
2023-02-22T11:43:12.299Z,97000.00
2023-02-22T11:45:49.841Z,96998.16
2023-02-22T11:48:24.935Z,96995.53
2023-02-22T11:51:04.316Z,96999.81
2023-02-22T11:53:46.094Z,96996.31
2023-02-22T11:56:22.693Z,96983.94
2023-02-22T11:59:03.702Z,96985.38
2023-02-22T12:01:38.335Z,96975.75
2023-02-22T12:04:36.411Z,96986.53
2023-02-22T12:07:18.902Z,96981.16
2023-02-22T12:09:53.798Z,96974.22
2023-02-22T12:12:32.550Z,96976.34
2023-02-22T12:15:08.890Z,96975.91
2023-02-22T12:17:59.468Z,96980.34
2023-02-22T12:20:33.130Z,96976.34
2023-02-22T12:23:14.234Z,96978.06
2023-02-22T12:25:55.280Z,96969.31
2023-02-22T12:28:29.118Z,96976.97
2023-02-22T12:31:06.679Z,96969.31
2023-02-22T12:33:44.738Z,96975.03
2023-02-22T12:36:16.956Z,96974.38
2023-02-22T12:38:53.648Z,96984.03
2023-02-22T12:41:30.386Z,96981.50
2023-02-22T12:44:06.388Z,96975.47
2023-02-22T12:46:40.486Z,96975.59
2023-02-22T12:49:15.365Z,96971.56
2023-02-22T12:51:49.999Z,96973.06
2023-02-22T12:54:26.673Z,96979.34
2023-02-22T12:57:00.599Z,96976.41
2023-02-22T12:59:34.718Z,96972.09
2023-02-22T13:02:14.172Z,96966.19
2023-02-22T13:04:42.395Z,96974.56
2023-02-22T13:07:22.279Z,96970.91
2023-02-22T13:10:26.423Z,96965.28
2023-02-22T13:13:03.991Z,96960.25
2023-02-22T13:15:44.234Z,96967.91
2023-02-22T13:18:19.699Z,96966.59
2023-02-22T13:20:51.931Z,96966.25
2023-02-22T13:23:33.428Z,96963.47
2023-02-22T13:26:10.715Z,96969.38
2023-02-22T13:28:43.757Z,96968.50
2023-02-22T13:31:30.684Z,96968.81
2023-02-22T13:34:23.052Z,96960.34
2023-02-22T13:37:12.946Z,96966.59
2023-02-22T13:40:03.418Z,96962.34
2023-02-22T13:42:46.653Z,96963.78
2023-02-22T13:45:49.878Z,96958.56
2023-02-22T13:48:38.046Z,96962.53
2023-02-22T13:51:13.314Z,96965.19
2023-02-22T13:53:49.810Z,96964.59
2023-02-22T13:56:20.940Z,96964.41
2023-02-22T13:59:04.640Z,96956.97
2023-02-22T14:01:41.589Z,96963.59
2023-02-22T14:04:34.780Z,96954.88
2023-02-22T14:07:04.745Z,96955.00
2023-02-22T14:09:48.379Z,96959.19
2023-02-22T14:12:49.491Z,96959.88
2023-02-22T14:15:31.059Z,96965.81
2023-02-22T14:18:02.085Z,96957.53
2023-02-22T14:20:35.153Z,96954.06
2023-02-22T14:23:30.292Z,96952.50
2023-02-22T14:26:11.776Z,96957.66
2023-02-22T14:28:46.239Z,96950.47
2023-02-22T14:31:34.516Z,96955.13
2023-02-22T14:34:10.550Z,96954.41
2023-02-22T14:36:52.907Z,96950.63
2023-02-22T14:39:26.814Z,96955.41
2023-02-22T14:42:01.895Z,96957.16
2023-02-22T14:44:36.008Z,96948.31
2023-02-22T14:47:10.858Z,96942.72
2023-02-22T14:49:48.974Z,96947.13
2023-02-22T14:52:24.228Z,96952.00
2023-02-22T14:55:04.794Z,96955.56
2023-02-22T14:57:46.006Z,96952.78
2023-02-22T15:00:22.774Z,96944.59
2023-02-22T15:02:57.442Z,96938.97
2023-02-22T15:05:30.363Z,96935.53
2023-02-22T15:08:00.560Z,96940.44
2023-02-22T15:10:31.564Z,96941.97
2023-02-22T15:13:12.742Z,96937.03
2023-02-22T15:15:47.511Z,96942.50
2023-02-22T15:18:25.716Z,96939.13
2023-02-22T15:20:58.251Z,96937.94
2023-02-22T15:23:30.898Z,96937.00
2023-02-22T15:25:59.485Z,96928.38
2023-02-22T15:28:32.426Z,96928.47
2023-02-22T15:31:18.030Z,96936.81
2023-02-22T15:33:48.092Z,96929.28
2023-02-22T15:36:18.024Z,96932.16
2023-02-22T15:38:50.421Z,96932.09
2023-02-22T15:41:27.945Z,96927.38
2023-02-22T15:44:03.437Z,96929.75
2023-02-22T15:46:34.628Z,96932.16
2023-02-22T15:49:25.924Z,96926.09
2023-02-22T15:52:08.303Z,96931.31
2023-02-22T15:54:42.807Z,96928.38
2023-02-22T15:57:14.189Z,96931.03
2023-02-22T15:59:46.864Z,96923.69
2023-02-22T16:02:31.539Z,96932.56
2023-02-22T16:05:05.457Z,96921.59
2023-02-22T16:07:33.777Z,96920.50
2023-02-22T16:10:08.345Z,96924.97
2023-02-22T16:12:36.986Z,96919.66
2023-02-22T16:15:17.081Z,96921.66
2023-02-22T16:18:01.062Z,96915.19
2023-02-22T16:20:35.469Z,96919.38
2023-02-22T16:23:23.526Z,96919.56
2023-02-22T16:26:07.541Z,96918.31
2023-02-22T16:28:36.074Z,96923.13
2023-02-22T16:31:05.339Z,96919.34
2023-02-22T16:33:34.791Z,96921.34
2023-02-22T16:36:08.633Z,96923.75
2023-02-22T16:38:39.658Z,96923.41
2023-02-22T16:41:09.290Z,96930.25
2023-02-22T16:43:37.751Z,96925.38
2023-02-22T16:46:07.391Z,96927.94
2023-02-22T16:48:38.334Z,96932.53
2023-02-22T16:51:20.093Z,96912.00
2023-02-22T16:53:49.739Z,96922.44
2023-02-22T16:56:20.477Z,96929.63
2023-02-22T16:58:52.797Z,96930.47
2023-02-22T17:01:23.387Z,96920.72
2023-02-22T17:03:53.863Z,96924.16
2023-02-22T17:06:23.548Z,96926.59
2023-02-22T17:08:52.688Z,96930.34
2023-02-22T17:11:20.950Z,96923.38
2023-02-22T17:13:51.820Z,96928.47
2023-02-22T17:16:20.051Z,96927.16
2023-02-22T17:18:48.333Z,96926.34
2023-02-22T17:21:16.693Z,96925.06
2023-02-22T17:23:47.218Z,96923.47
2023-02-22T17:26:17.025Z,96926.06
2023-02-22T17:28:45.739Z,96931.56
2023-02-22T17:31:21.836Z,96933.97
2023-02-22T17:33:51.444Z,96933.19
2023-02-22T17:36:20.986Z,96933.53
2023-02-22T17:38:50.577Z,96932.09
2023-02-22T17:41:18.959Z,96936.09
2023-02-22T17:43:47.095Z,96934.56
2023-02-22T17:46:18.518Z,96935.44
2023-02-22T17:48:48.299Z,96927.47
2023-02-22T17:51:16.378Z,96929.44
2023-02-22T17:53:44.672Z,96928.91
2023-02-22T17:56:18.734Z,96928.50
2023-02-22T17:58:47.508Z,96929.28
2023-02-22T18:01:24.689Z,96927.22
2023-02-22T18:03:53.352Z,96926.44
2023-02-22T18:06:25.325Z,96916.53
2023-02-22T18:08:56.411Z,96922.59
2023-02-22T18:11:28.980Z,96920.69
2023-02-22T18:13:58.192Z,96923.22
2023-02-22T18:16:28.807Z,96923.50
2023-02-22T18:18:58.074Z,96918.91
2023-02-22T18:21:26.892Z,96916.66
2023-02-22T18:23:55.303Z,96911.75
2023-02-22T18:26:25.764Z,96910.91
2023-02-22T18:28:55.567Z,96915.53
2023-02-22T18:31:24.682Z,96909.88
2023-02-22T18:33:53.900Z,96910.22
2023-02-22T18:36:23.285Z,96909.56
2023-02-22T18:38:53.231Z,96904.63
2023-02-22T18:41:25.455Z,96911.88
2023-02-22T18:43:59.089Z,96900.53
2023-02-22T18:46:30.042Z,96900.97
2023-02-22T18:48:58.597Z,96909.66
2023-02-22T18:51:27.633Z,96908.78
2023-02-22T18:54:00.710Z,96905.16
2023-02-22T18:56:30.820Z,96901.34
2023-02-22T18:59:02.716Z,96897.47
2023-02-22T19:01:31.856Z,96909.59
2023-02-22T19:04:02.156Z,96906.72
2023-02-22T19:06:30.280Z,96901.66
2023-02-22T19:09:01.464Z,96900.88
2023-02-22T19:11:29.909Z,96902.16
2023-02-22T19:14:04.012Z,96899.63
2023-02-22T19:16:33.714Z,96894.28
2023-02-22T19:19:01.949Z,96905.13
2023-02-22T19:21:31.906Z,96889.25
2023-02-22T19:24:03.087Z,96894.25
2023-02-22T19:26:32.088Z,96889.38
2023-02-22T19:29:05.467Z,96897.13
2023-02-22T19:31:34.616Z,96885.50
2023-02-22T19:34:04.257Z,96890.63
2023-02-22T19:36:33.227Z,96889.16
2023-02-22T19:39:02.607Z,96885.50
2023-02-22T19:41:30.960Z,96885.63
2023-02-22T19:43:59.373Z,96879.59
2023-02-22T19:46:29.151Z,96884.06
2023-02-22T19:48:57.956Z,96882.50
2023-02-22T19:51:28.244Z,96884.06
2023-02-22T19:53:59.491Z,96882.91
2023-02-22T19:56:28.491Z,96884.19
2023-02-22T19:58:59.003Z,96878.06
2023-02-22T20:01:30.368Z,96883.94
2023-02-22T20:04:00.961Z,96876.44
2023-02-22T20:06:34.909Z,96873.78
2023-02-22T20:09:04.171Z,96881.81
2023-02-22T20:11:32.693Z,96872.72
2023-02-22T20:14:02.045Z,96874.97
2023-02-22T20:16:31.336Z,96878.16
2023-02-22T20:19:00.094Z,96878.81
2023-02-22T20:21:31.219Z,96874.38
2023-02-22T20:23:59.849Z,96875.88
2023-02-22T20:26:30.767Z,96881.50
2023-02-22T20:28:59.917Z,96876.03
2023-02-22T20:31:29.675Z,96872.66
2023-02-22T20:34:01.684Z,96874.31
2023-02-22T20:36:31.255Z,96870.47
2023-02-22T20:39:01.071Z,96870.09
2023-02-22T20:41:32.838Z,96877.50
2023-02-22T20:44:02.248Z,96874.84
2023-02-22T20:46:32.669Z,96868.47
2023-02-22T20:49:03.502Z,96869.81
2023-02-22T20:51:32.791Z,96869.59
2023-02-22T20:54:01.536Z,96872.59
2023-02-22T20:56:31.990Z,96870.81
2023-02-22T20:59:01.829Z,96867.78
2023-02-22T21:01:30.076Z,96866.75
2023-02-22T21:04:00.987Z,96870.53
2023-02-22T21:06:31.341Z,96872.06
2023-02-22T21:09:02.747Z,96862.75
2023-02-22T21:11:32.330Z,96860.34
2023-02-22T21:14:01.235Z,96867.44
2023-02-22T21:16:32.256Z,96869.22
2023-02-22T21:19:02.328Z,96867.81
2023-02-22T21:21:32.068Z,96862.69
2023-02-22T21:24:02.131Z,96860.34
2023-02-22T21:26:32.182Z,96857.44
2023-02-22T21:29:01.995Z,96859.91
2023-02-22T21:31:31.699Z,96862.63
2023-02-22T21:34:01.320Z,96852.28
2023-02-22T21:36:32.127Z,96859.19
2023-02-22T21:39:08.493Z,96858.97
2023-02-22T21:41:39.740Z,96853.31
2023-02-22T21:44:08.884Z,96847.28
2023-02-22T21:46:37.063Z,96842.63
2023-02-22T21:49:05.799Z,96849.94
2023-02-22T21:51:36.162Z,96843.94
2023-02-22T21:54:06.139Z,96843.16
2023-02-22T21:56:36.136Z,96845.94
2023-02-22T21:59:07.174Z,96847.47
2023-02-22T22:01:38.354Z,96843.88
2023-02-22T22:04:06.871Z,96846.13
2023-02-22T22:06:36.983Z,96840.03
2023-02-22T22:09:18.142Z,96841.75
2023-02-22T22:11:50.768Z,96838.03
2023-02-22T22:14:20.040Z,96835.91
2023-02-22T22:16:49.013Z,96835.69
2023-02-22T22:19:17.847Z,96836.06
2023-02-22T22:21:49.117Z,96825.09
2023-02-22T22:24:20.157Z,96827.09
2023-02-22T22:26:51.238Z,96819.22
2023-02-22T22:29:19.654Z,96824.03
2023-02-22T22:31:48.013Z,96824.94
2023-02-22T22:34:16.030Z,96822.34
2023-02-22T22:36:43.939Z,96820.09
2023-02-22T22:39:14.184Z,96823.59
2023-02-22T22:41:42.751Z,96823.47
2023-02-22T22:44:12.036Z,96824.28
2023-02-22T22:46:40.986Z,96820.16
2023-02-22T22:49:10.130Z,96820.47
2023-02-22T22:51:38.870Z,96816.88
2023-02-22T22:54:07.119Z,96819.41
2023-02-22T22:56:38.053Z,96809.69
2023-02-22T22:59:08.442Z,96807.59
2023-02-22T23:01:40.636Z,96809.56
2023-02-22T23:04:10.574Z,96805.56
2023-02-22T23:06:41.085Z,96817.16
2023-02-22T23:09:14.416Z,96813.84
2023-02-22T23:11:45.593Z,96810.28
2023-02-22T23:14:17.319Z,96806.00
2023-02-22T23:16:45.491Z,96819.94
2023-02-22T23:19:15.744Z,96810.31
2023-02-22T23:21:44.870Z,96810.31
2023-02-22T23:24:15.481Z,96809.25
2023-02-22T23:26:48.598Z,96810.81
2023-02-22T23:29:17.821Z,96814.13
2023-02-22T23:31:48.356Z,96805.59
2023-02-22T23:34:17.317Z,96806.00
2023-02-22T23:36:45.552Z,96801.84
2023-02-22T23:39:15.155Z,96804.31
2023-02-22T23:41:43.213Z,96811.81
2023-02-22T23:44:17.696Z,96812.22
2023-02-22T23:46:48.486Z,96809.78
2023-02-22T23:49:20.771Z,96810.81
2023-02-22T23:51:50.202Z,96803.50
2023-02-22T23:54:20.699Z,96800.94
2023-02-22T23:56:56.631Z,96805.94
2023-02-22T23:59:28.160Z,96802.19
